sensor_id;sensor_type;location;lat;lon;timestamp;pressure;altitude;pressure_sealevel;temperature;humidity
21664;BME280;10993;52.510;13.456;2022-09-13T00:03:57;-26587.78;;;14.97;100.00
21664;BME280;10993;52.510;13.456;2022-09-13T00:08:59;-26583.13;;;14.81;100.00
21664;BME280;10993;52.510;13.456;2022-09-13T00:14:01;-26580.94;;;14.74;100.00
21664;BME280;10993;52.510;13.456;2022-09-13T00:19:01;-26577.19;;;14.62;100.00
21664;BME280;10993;52.510;13.456;2022-09-13T00:24:04;-26580.78;;;14.74;100.00
21664;BME280;10993;52.510;13.456;2022-09-13T00:29:04;-26580.78;;;14.74;100.00
21664;BME280;10993;52.510;13.456;2022-09-13T00:34:05;-26583.13;;;14.81;100.00
21664;BME280;10993;52.510;13.456;2022-09-13T00:39:07;-26576.72;;;14.60;100.00
21664;BME280;10993;52.510;13.456;2022-09-13T00:49:42;-26575.63;;;14.57;100.00
21664;BME280;10993;52.510;13.456;2022-09-13T00:54:49;-26574.06;;;14.51;100.00
21664;BME280;10993;52.510;13.456;2022-09-13T00:59:58;-26565.81;;;14.24;100.00
21664;BME280;10993;52.510;13.456;2022-09-13T01:05:01;-26573.44;;;14.49;100.00
21664;BME280;10993;52.510;13.456;2022-09-13T01:10:04;-26568.63;;;14.33;100.00
21664;BME280;10993;52.510;13.456;2022-09-13T01:15:07;-26569.25;;;14.35;100.00
21664;BME280;10993;52.510;13.456;2022-09-13T01:20:09;-26566.44;;;14.26;100.00
21664;BME280;10993;52.510;13.456;2022-09-13T01:25:43;-26558.00;;;13.98;100.00
21664;BME280;10993;52.510;13.456;2022-09-13T01:30:58;-26565.34;;;14.23;100.00
21664;BME280;10993;52.510;13.456;2022-09-13T01:36:14;-26565.19;;;14.22;100.00
21664;BME280;10993;52.510;13.456;2022-09-13T01:41:46;-26567.06;;;14.28;100.00
21664;BME280;10993;52.510;13.456;2022-09-13T01:46:56;-26564.41;;;14.19;100.00
21664;BME280;10993;52.510;13.456;2022-09-13T01:52:00;-26563.47;;;14.16;100.00
21664;BME280;10993;52.510;13.456;2022-09-13T01:57:09;-26562.38;;;14.13;100.00
21664;BME280;10993;52.510;13.456;2022-09-13T02:02:16;-26561.75;;;14.11;100.00
21664;BME280;10993;52.510;13.456;2022-09-13T02:07:20;-26561.13;;;14.09;100.00
21664;BME280;10993;52.510;13.456;2022-09-13T02:12:24;-26557.69;;;13.97;100.00
21664;BME280;10993;52.510;13.456;2022-09-13T02:17:30;-26563.31;;;14.16;100.00
21664;BME280;10993;52.510;13.456;2022-09-13T02:22:38;-26559.41;;;14.03;100.00
21664;BME280;10993;52.510;13.456;2022-09-13T02:27:44;-26550.69;;;13.74;100.00
21664;BME280;10993;52.510;13.456;2022-09-13T02:32:51;-26554.56;;;13.87;100.00
21664;BME280;10993;52.510;13.456;2022-09-13T02:37:56;-26556.59;;;13.94;100.00
21664;BME280;10993;52.510;13.456;2022-09-13T02:43:00;-26557.53;;;13.97;100.00
21664;BME280;10993;52.510;13.456;2022-09-13T02:48:09;-26555.03;;;13.89;100.00
21664;BME280;10993;52.510;13.456;2022-09-13T02:53:23;-26560.19;;;14.06;100.00
21664;BME280;10993;52.510;13.456;2022-09-13T02:58:31;-26562.84;;;14.14;100.00
21664;BME280;10993;52.510;13.456;2022-09-13T03:03:35;-26561.13;;;14.09;100.00
21664;BME280;10993;52.510;13.456;2022-09-13T03:08:36;-26560.34;;;14.06;100.00
21664;BME280;10993;52.510;13.456;2022-09-13T03:13:59;-26557.84;;;13.98;100.00
21664;BME280;10993;52.510;13.456;2022-09-13T03:19:19;-26562.53;;;14.13;100.00
21664;BME280;10993;52.510;13.456;2022-09-13T03:24:27;-26561.28;;;14.09;100.00
21664;BME280;10993;52.510;13.456;2022-09-13T03:29:35;-26558.47;;;14.00;100.00
21664;BME280;10993;52.510;13.456;2022-09-13T03:34:44;-26560.03;;;14.05;100.00
21664;BME280;10993;52.510;13.456;2022-09-13T03:39:51;-26558.31;;;13.99;100.00
21664;BME280;10993;52.510;13.456;2022-09-13T03:44:55;-26550.69;;;13.74;100.00
21664;BME280;10993;52.510;13.456;2022-09-13T03:49:59;-26552.25;;;13.79;100.00
21664;BME280;10993;52.510;13.456;2022-09-13T03:55:00;-26553.81;;;13.84;100.00
21664;BME280;10993;52.510;13.456;2022-09-13T04:00:02;-26556.75;;;13.94;100.00
21664;BME280;10993;52.510;13.456;2022-09-13T04:05:05;-26559.25;;;14.02;100.00
21664;BME280;10993;52.510;13.456;2022-09-13T04:10:07;-26561.28;;;14.09;100.00
21664;BME280;10993;52.510;13.456;2022-09-13T04:15:08;-26563.78;;;14.17;100.00
21664;BME280;10993;52.510;13.456;2022-09-13T04:20:10;-26562.84;;;14.14;100.00
21664;BME280;10993;52.510;13.456;2022-09-13T04:25:10;-26566.75;;;14.27;100.00
21664;BME280;10993;52.510;13.456;2022-09-13T04:30:11;-26569.56;;;14.36;100.00
21664;BME280;10993;52.510;13.456;2022-09-13T04:35:13;-26566.91;;;14.28;100.00
21664;BME280;10993;52.510;13.456;2022-09-13T04:40:16;-26574.38;;;14.52;100.00
21664;BME280;10993;52.510;13.456;2022-09-13T04:45:16;-26572.50;;;14.46;100.00
21664;BME280;10993;52.510;13.456;2022-09-13T04:50:18;-26566.59;;;14.27;100.00
21664;BME280;10993;52.510;13.456;2022-09-13T04:55:19;-26568.78;;;14.34;100.00
21664;BME280;10993;52.510;13.456;2022-09-13T05:00:19;-26565.19;;;14.22;100.00
21664;BME280;10993;52.510;13.456;2022-09-13T05:05:21;-26573.44;;;14.49;100.00
21664;BME280;10993;52.510;13.456;2022-09-13T05:10:22;-26575.16;;;14.55;100.00
21664;BME280;10993;52.510;13.456;2022-09-13T05:15:22;-26582.66;;;14.80;100.00
21664;BME280;10993;52.510;13.456;2022-09-13T05:20:24;-26577.81;;;14.64;100.00
21664;BME280;10993;52.510;13.456;2022-09-13T05:25:24;-26585.47;;;14.89;100.00
21664;BME280;10993;52.510;13.456;2022-09-13T05:30:25;-26588.25;;;14.98;100.00
21664;BME280;10993;52.510;13.456;2022-09-13T05:35:26;-26587.78;;;14.97;100.00
21664;BME280;10993;52.510;13.456;2022-09-13T05:40:27;-26588.41;;;14.99;100.00
21664;BME280;10993;52.510;13.456;2022-09-13T05:45:27;-26590.28;;;15.05;100.00
21664;BME280;10993;52.510;13.456;2022-09-13T05:50:29;-26599.31;;;15.35;100.00
21664;BME280;10993;52.510;13.456;2022-09-13T05:55:30;-26586.41;;;14.92;100.00
21664;BME280;10993;52.510;13.456;2022-09-13T06:00:31;-26589.66;;;15.03;100.00
21664;BME280;10993;52.510;13.456;2022-09-13T06:05:33;-26588.09;;;14.98;100.00
21664;BME280;10993;52.510;13.456;2022-09-13T06:10:33;-26577.19;;;14.62;100.00
21664;BME280;10993;52.510;13.456;2022-09-13T06:15:34;-26577.81;;;14.64;100.00
21664;BME280;10993;52.510;13.456;2022-09-13T06:20:35;-26578.75;;;14.67;100.00
21664;BME280;10993;52.510;13.456;2022-09-13T06:25:36;-26582.50;;;14.79;100.00
21664;BME280;10993;52.510;13.456;2022-09-13T06:30:37;-26582.97;;;14.81;100.00
21664;BME280;10993;52.510;13.456;2022-09-13T06:35:38;-26582.19;;;14.78;100.00
21664;BME280;10993;52.510;13.456;2022-09-13T06:40:39;-26588.72;;;15.00;100.00
21664;BME280;10993;52.510;13.456;2022-09-13T06:45:39;-26591.84;;;15.10;100.00
21664;BME280;10993;52.510;13.456;2022-09-13T06:50:42;-26594.81;;;15.20;100.00
21664;BME280;10993;52.510;13.456;2022-09-13T06:55:44;-26610.69;;;15.73;100.00
21664;BME280;10993;52.510;13.456;2022-09-13T07:00:45;-26622.97;;;16.13;100.00
21664;BME280;10993;52.510;13.456;2022-09-13T07:05:46;-26621.41;;;16.08;100.00
21664;BME280;10993;52.510;13.456;2022-09-13T07:10:47;-26620.81;;;16.06;100.00
21664;BME280;10993;52.510;13.456;2022-09-13T07:15:47;-26642.09;;;16.77;100.00
21664;BME280;10993;52.510;13.456;2022-09-13T07:20:49;-26637.28;;;16.61;100.00
21664;BME280;10993;52.510;13.456;2022-09-13T07:25:53;-26633.38;;;16.48;100.00
21664;BME280;10993;52.510;13.456;2022-09-13T07:30:54;-26631.22;;;16.41;100.00
21664;BME280;10993;52.510;13.456;2022-09-13T07:35:56;-26635.09;;;16.53;100.00
21664;BME280;10993;52.510;13.456;2022-09-13T07:40:57;-26634.47;;;16.51;100.00
21664;BME280;10993;52.510;13.456;2022-09-13T07:45:59;-26636.97;;;16.60;100.00
21664;BME280;10993;52.510;13.456;2022-09-13T07:51:03;-26640.84;;;16.73;100.00
21664;BME280;10993;52.510;13.456;2022-09-13T07:56:07;-26664.75;;;17.52;100.00
21664;BME280;10993;52.510;13.456;2022-09-13T08:01:09;-26671.72;;;17.75;100.00
21664;BME280;10993;52.510;13.456;2022-09-13T08:06:11;-26687.38;;;18.27;100.00
21664;BME280;10993;52.510;13.456;2022-09-13T08:11:15;-26676.53;;;17.91;100.00
21664;BME280;10993;52.510;13.456;2022-09-13T08:16:17;-26698.69;;;18.65;100.00
21664;BME280;10993;52.510;13.456;2022-09-13T08:21:20;-26707.97;;;18.96;100.00
21664;BME280;10993;52.510;13.456;2022-09-13T08:26:21;-26738.28;;;19.97;96.63
21664;BME280;10993;52.510;13.456;2022-09-13T08:31:21;-26779.00;;;21.33;87.35
21664;BME280;10993;52.510;13.456;2022-09-13T08:36:24;-26776.56;;;21.25;87.17
21664;BME280;10993;52.510;13.456;2022-09-13T08:41:40;-26763.91;;;20.82;86.71
21664;BME280;10993;52.510;13.456;2022-09-13T08:46:53;-26767.31;;;20.94;86.06
21664;BME280;10993;52.510;13.456;2022-09-13T08:52:01;-26817.03;;;22.60;80.70
21664;BME280;10993;52.510;13.456;2022-09-13T08:57:10;-26842.38;;;23.45;73.90
21664;BME280;10993;52.510;13.456;2022-09-13T09:02:26;-26890.19;;;25.06;62.16
21664;BME280;10993;52.510;13.456;2022-09-13T09:07:33;-26864.31;;;24.19;65.08
21664;BME280;10993;52.510;13.456;2022-09-13T09:12:38;-26863.53;;;24.16;65.93
21664;BME280;10993;52.510;13.456;2022-09-13T09:17:45;-26877.66;;;24.64;64.40
21664;BME280;10993;52.510;13.456;2022-09-13T09:22:50;-26905.50;;;25.58;59.31
21664;BME280;10993;52.510;13.456;2022-09-13T09:27:51;-26959.66;;;27.41;55.06
21664;BME280;10993;52.510;13.456;2022-09-13T09:33:07;-27040.31;;;30.14;42.95
21664;BME280;10993;52.510;13.456;2022-09-13T09:38:27;-27015.75;;;29.31;44.12
21664;BME280;10993;52.510;13.456;2022-09-13T09:43:34;-27005.44;;;28.96;44.17
21664;BME280;10993;52.510;13.456;2022-09-13T09:48:42;-26993.28;;;28.55;46.93
21664;BME280;10993;52.510;13.456;2022-09-13T09:53:47;-27037.13;;;30.04;42.40
21664;BME280;10993;52.510;13.456;2022-09-13T09:58:51;-27014.38;;;29.26;43.94
21664;BME280;10993;52.510;13.456;2022-09-13T10:04:00;-26997.25;;;28.68;45.06
21664;BME280;10993;52.510;13.456;2022-09-13T10:09:05;-27006.34;;;28.99;44.07
21664;BME280;10993;52.510;13.456;2022-09-13T10:14:27;-27049.09;;;30.44;41.09
21664;BME280;10993;52.510;13.456;2022-09-13T10:19:28;-27016.22;;;29.32;43.81
21664;BME280;10993;52.510;13.456;2022-09-13T10:24:30;-27000.88;;;28.80;45.25
21664;BME280;10993;52.510;13.456;2022-09-13T10:29:31;-27015.31;;;29.29;44.83
21664;BME280;10993;52.510;13.456;2022-09-13T10:34:34;-26989.47;;;28.42;46.57
21664;BME280;10993;52.510;13.456;2022-09-13T10:39:50;-26992.66;;;28.53;46.53
21664;BME280;10993;52.510;13.456;2022-09-13T10:44:53;-26969.25;;;27.73;49.15
21664;BME280;10993;52.510;13.456;2022-09-13T10:49:55;-26940.59;;;26.76;52.33
21664;BME280;10993;52.510;13.456;2022-09-13T10:55:23;-26928.41;;;26.35;54.10
21664;BME280;10993;52.510;13.456;2022-09-13T11:00:30;-26889.13;;;25.03;61.73
21664;BME280;10993;52.510;13.456;2022-09-13T11:05:38;-26871.19;;;24.42;65.62
21664;BME280;10993;52.510;13.456;2022-09-13T11:10:51;-26850.34;;;23.72;69.74
21664;BME280;10993;52.510;13.456;2022-09-13T11:15:57;-26844.22;;;23.51;70.12
21664;BME280;10993;52.510;13.456;2022-09-13T11:21:11;-26844.97;;;23.54;69.71
21664;BME280;10993;52.510;13.456;2022-09-13T11:26:28;-26829.03;;;23.00;73.40
21664;BME280;10993;52.510;13.456;2022-09-13T11:31:37;-26810.88;;;22.40;76.00
21664;BME280;10993;52.510;13.456;2022-09-13T11:37:09;-26809.34;;;22.34;78.51
21664;BME280;10993;52.510;13.456;2022-09-13T11:42:27;-26810.72;;;22.39;78.86
21664;BME280;10993;52.510;13.456;2022-09-13T11:47:40;-26800.72;;;22.06;82.20
21664;BME280;10993;52.510;13.456;2022-09-13T11:52:50;-26795.34;;;21.88;84.95
21664;BME280;10993;52.510;13.456;2022-09-13T11:57:56;-26797.81;;;21.96;83.97
21664;BME280;10993;52.510;13.456;2022-09-13T12:03:02;-26806.56;;;22.25;83.72
21664;BME280;10993;52.510;13.456;2022-09-13T12:08:11;-26804.56;;;22.18;83.65
21664;BME280;10993;52.510;13.456;2022-09-13T12:13:18;-26803.66;;;22.15;82.48
21664;BME280;10993;52.510;13.456;2022-09-13T12:18:24;-26815.81;;;22.56;81.83
21664;BME280;10993;52.510;13.456;2022-09-13T12:23:31;-26817.81;;;22.63;81.34
21664;BME280;10993;52.510;13.456;2022-09-13T12:28:38;-26799.81;;;22.02;84.27
21664;BME280;10993;52.510;13.456;2022-09-13T12:33:40;-26786.72;;;21.59;87.16
21664;BME280;10993;52.510;13.456;2022-09-13T12:38:55;-26784.88;;;21.52;88.76
21664;BME280;10993;52.510;13.456;2022-09-13T12:44:18;-26783.16;;;21.47;91.15
21664;BME280;10993;52.510;13.456;2022-09-13T12:49:37;-26793.03;;;21.80;89.92
21664;BME280;10993;52.510;13.456;2022-09-13T12:55:11;-26801.19;;;22.07;88.36
21664;BME280;10993;52.510;13.456;2022-09-13T13:00:21;-26804.56;;;22.18;87.85
21664;BME280;10993;52.510;13.456;2022-09-13T13:05:26;-26797.03;;;21.93;89.00
21664;BME280;10993;52.510;13.456;2022-09-13T13:10:29;-26806.13;;;22.24;87.49
21664;BME280;10993;52.510;13.456;2022-09-13T13:16:05;-26816.41;;;22.58;88.45
21664;BME280;10993;52.510;13.456;2022-09-13T13:21:31;-26818.41;;;22.65;91.11
21664;BME280;10993;52.510;13.456;2022-09-13T13:26:46;-26807.19;;;22.27;91.48
21664;BME280;10993;52.510;13.456;2022-09-13T13:32:08;-26802.41;;;22.11;93.67
21664;BME280;10993;52.510;13.456;2022-09-13T13:37:32;-26804.88;;;22.19;93.35
21664;BME280;10993;52.510;13.456;2022-09-13T13:42:34;-26805.19;;;22.21;91.65
21664;BME280;10993;52.510;13.456;2022-09-13T13:48:10;-26819.50;;;22.68;89.89
21664;BME280;10993;52.510;13.456;2022-09-13T13:53:21;-26823.94;;;22.83;87.08
21664;BME280;10993;52.510;13.456;2022-09-13T13:58:28;-26832.09;;;23.11;84.98
21664;BME280;10993;52.510;13.456;2022-09-13T14:03:48;-26837.31;;;23.28;83.96
21664;BME280;10993;52.510;13.456;2022-09-13T14:09:00;-26821.94;;;22.77;85.92
21664;BME280;10993;52.510;13.456;2022-09-13T14:14:14;-26838.38;;;23.32;83.87
21664;BME280;10993;52.510;13.456;2022-09-13T14:19:23;-26847.44;;;23.62;80.51
21664;BME280;10993;52.510;13.456;2022-09-13T14:24:23;-26858.50;;;23.99;78.16
21664;BME280;10993;52.510;13.456;2022-09-13T14:29:24;-26855.56;;;23.90;76.98
21664;BME280;10993;52.510;13.456;2022-09-13T14:34:29;-26849.44;;;23.69;78.69
21664;BME280;10993;52.510;13.456;2022-09-13T14:39:30;-26851.28;;;23.75;77.59
21664;BME280;10993;52.510;13.456;2022-09-13T14:44:30;-26844.06;;;23.51;78.83
21664;BME280;10993;52.510;13.456;2022-09-13T14:49:34;-26841.47;;;23.42;79.05
21664;BME280;10993;52.510;13.456;2022-09-13T14:54:39;-26846.06;;;23.58;79.05
21664;BME280;10993;52.510;13.456;2022-09-13T14:59:44;-26848.97;;;23.67;77.04
21664;BME280;10993;52.510;13.456;2022-09-13T15:04:50;-26847.44;;;23.62;77.37
21664;BME280;10993;52.510;13.456;2022-09-13T15:09:55;-26843.59;;;23.49;79.52
21664;BME280;10993;52.510;13.456;2022-09-13T15:15:33;-26847.59;;;23.63;77.31
21664;BME280;10993;52.510;13.456;2022-09-13T15:20:46;-26843.00;;;23.47;79.23
21664;BME280;10993;52.510;13.456;2022-09-13T15:25:51;-26848.50;;;23.66;79.36
21664;BME280;10993;52.510;13.456;2022-09-13T15:30:53;-26830.56;;;23.06;81.80
21664;BME280;10993;52.510;13.456;2022-09-13T15:36:21;-26812.72;;;22.46;85.29
21664;BME280;10993;52.510;13.456;2022-09-13T15:41:28;-26802.72;;;22.12;88.21
21664;BME280;10993;52.510;13.456;2022-09-13T15:46:31;-26793.66;;;21.82;90.90
21664;BME280;10993;52.510;13.456;2022-09-13T15:51:35;-26789.66;;;21.68;92.01
21664;BME280;10993;52.510;13.456;2022-09-13T15:56:35;-26776.84;;;21.26;94.80
21664;BME280;10993;52.510;13.456;2022-09-13T16:01:39;-26772.69;;;21.12;94.95
21664;BME280;10993;52.510;13.456;2022-09-13T16:06:41;-26770.84;;;21.06;96.12
21664;BME280;10993;52.510;13.456;2022-09-13T16:11:41;-26762.84;;;20.79;98.72
21664;BME280;10993;52.510;13.456;2022-09-13T16:16:42;-26759.59;;;20.68;100.00
21664;BME280;10993;52.510;13.456;2022-09-13T16:21:44;-26754.97;;;20.52;100.00
21664;BME280;10993;52.510;13.456;2022-09-13T16:26:44;-26751.41;;;20.41;100.00
21664;BME280;10993;52.510;13.456;2022-09-13T16:31:45;-26746.00;;;20.23;100.00
21664;BME280;10993;52.510;13.456;2022-09-13T16:36:46;-26736.75;;;19.92;100.00
21664;BME280;10993;52.510;13.456;2022-09-13T16:41:47;-26744.63;;;20.18;100.00
21664;BME280;10993;52.510;13.456;2022-09-13T16:46:47;-26740.44;;;20.04;100.00
21664;BME280;10993;52.510;13.456;2022-09-13T16:51:49;-26735.66;;;19.88;100.00
21664;BME280;10993;52.510;13.456;2022-09-13T16:56:50;-26733.81;;;19.82;100.00
21664;BME280;10993;52.510;13.456;2022-09-13T17:01:50;-26732.09;;;19.76;100.00
21664;BME280;10993;52.510;13.456;2022-09-13T17:06:52;-26727.63;;;19.61;100.00
21664;BME280;10993;52.510;13.456;2022-09-13T17:11:53;-26725.47;;;19.54;100.00
21664;BME280;10993;52.510;13.456;2022-09-13T17:16:55;-26722.53;;;19.44;100.00
21664;BME280;10993;52.510;13.456;2022-09-13T17:21:57;-26719.44;;;19.34;100.00
21664;BME280;10993;52.510;13.456;2022-09-13T17:26:57;-26713.25;;;19.13;100.00
21664;BME280;10993;52.510;13.456;2022-09-13T17:31:59;-26709.22;;;19.00;100.00
21664;BME280;10993;52.510;13.456;2022-09-13T17:37:01;-26714.47;;;19.17;100.00
21664;BME280;10993;52.510;13.456;2022-09-13T17:42:03;-26712.94;;;19.12;100.00
21664;BME280;10993;52.510;13.456;2022-09-13T17:47:03;-26708.91;;;18.99;100.00
21664;BME280;10993;52.510;13.456;2022-09-13T17:52:06;-26705.34;;;18.87;100.00
21664;BME280;10993;52.510;13.456;2022-09-13T17:57:07;-26704.56;;;18.84;100.00
21664;BME280;10993;52.510;13.456;2022-09-13T18:02:10;-26701.47;;;18.74;100.00
21664;BME280;10993;52.510;13.456;2022-09-13T18:07:12;-26698.84;;;18.65;100.00
21664;BME280;10993;52.510;13.456;2022-09-13T18:12:12;-26697.16;;;18.60;100.00
21664;BME280;10993;52.510;13.456;2022-09-13T18:17:13;-26699.31;;;18.67;100.00
21664;BME280;10993;52.510;13.456;2022-09-13T18:22:14;-26697.59;;;18.61;100.00
21664;BME280;10993;52.510;13.456;2022-09-13T18:27:15;-26697.75;;;18.62;100.00
21664;BME280;10993;52.510;13.456;2022-09-13T18:32:15;-26690.03;;;18.36;100.00
21664;BME280;10993;52.510;13.456;2022-09-13T18:37:16;-26689.88;;;18.35;100.00
21664;BME280;10993;52.510;13.456;2022-09-13T18:42:17;-26686.94;;;18.26;100.00
21664;BME280;10993;52.510;13.456;2022-09-13T18:47:17;-26684.75;;;18.18;100.00
21664;BME280;10993;52.510;13.456;2022-09-13T18:52:19;-26683.50;;;18.14;100.00
21664;BME280;10993;52.510;13.456;2022-09-13T18:57:20;-26683.81;;;18.15;100.00
21664;BME280;10993;52.510;13.456;2022-09-13T19:02:20;-26681.97;;;18.09;100.00
21664;BME280;10993;52.510;13.456;2022-09-13T19:07:21;-26678.41;;;17.97;100.00
21664;BME280;10993;52.510;13.456;2022-09-13T19:12:22;-26672.81;;;17.79;100.00
21664;BME280;10993;52.510;13.456;2022-09-13T19:17:22;-26670.19;;;17.70;100.00
21664;BME280;10993;52.510;13.456;2022-09-13T19:22:24;-26668.63;;;17.65;100.00
21664;BME280;10993;52.510;13.456;2022-09-13T19:27:24;-26666.16;;;17.57;100.00
21664;BME280;10993;52.510;13.456;2022-09-13T19:32:25;-26663.50;;;17.48;100.00
21664;BME280;10993;52.510;13.456;2022-09-13T19:37:26;-26665.69;;;17.55;100.00
21664;BME280;10993;52.510;13.456;2022-09-13T19:42:27;-26661.81;;;17.42;100.00
21664;BME280;10993;52.510;13.456;2022-09-13T19:47:27;-26658.38;;;17.31;100.00
21664;BME280;10993;52.510;13.456;2022-09-13T19:52:29;-26653.59;;;17.15;100.00
21664;BME280;10993;52.510;13.456;2022-09-13T19:57:29;-26652.66;;;17.12;100.00
21664;BME280;10993;52.510;13.456;2022-09-13T20:02:29;-26652.81;;;17.12;100.00
21664;BME280;10993;52.510;13.456;2022-09-13T20:07:31;-26651.56;;;17.08;100.00
21664;BME280;10993;52.510;13.456;2022-09-13T20:12:31;-26646.75;;;16.92;100.00
21664;BME280;10993;52.510;13.456;2022-09-13T20:17:32;-26647.38;;;16.94;100.00
21664;BME280;10993;52.510;13.456;2022-09-13T20:22:34;-26643.47;;;16.81;100.00
21664;BME280;10993;52.510;13.456;2022-09-13T20:27:34;-26635.88;;;16.56;100.00
21664;BME280;10993;52.510;13.456;2022-09-13T20:32:34;-26641.63;;;16.75;100.00
21664;BME280;10993;52.510;13.456;2022-09-13T20:37:36;-26640.06;;;16.70;100.00
21664;BME280;10993;52.510;13.456;2022-09-13T20:42:36;-26637.59;;;16.62;100.00
21664;BME280;10993;52.510;13.456;2022-09-13T20:47:36;-26638.50;;;16.65;100.00
21664;BME280;10993;52.510;13.456;2022-09-13T20:52:38;-26637.59;;;16.62;100.00
21664;BME280;10993;52.510;13.456;2022-09-13T20:57:39;-26641.63;;;16.75;100.00
21664;BME280;10993;52.510;13.456;2022-09-13T21:02:40;-26641.00;;;16.73;100.00
21664;BME280;10993;52.510;13.456;2022-09-13T21:07:42;-26643.78;;;16.82;100.00
21664;BME280;10993;52.510;13.456;2022-09-13T21:13:01;-26641.94;;;16.76;100.00
21664;BME280;10993;52.510;13.456;2022-09-13T21:18:03;-26640.69;;;16.72;100.00
21664;BME280;10993;52.510;13.456;2022-09-13T21:23:04;-26634.47;;;16.51;100.00
21664;BME280;10993;52.510;13.456;2022-09-13T21:28:05;-26630.13;;;16.37;100.00
21664;BME280;10993;52.510;13.456;2022-09-13T21:33:05;-26630.44;;;16.38;100.00
21664;BME280;10993;52.510;13.456;2022-09-13T21:38:07;-26628.56;;;16.32;100.00
21664;BME280;10993;52.510;13.456;2022-09-13T21:43:07;-26629.97;;;16.36;100.00
21664;BME280;10993;52.510;13.456;2022-09-13T21:48:08;-26621.72;;;16.09;100.00
21664;BME280;10993;52.510;13.456;2022-09-13T21:53:09;-26621.56;;;16.09;100.00
21664;BME280;10993;52.510;13.456;2022-09-13T21:58:10;-26617.69;;;15.96;100.00
21664;BME280;10993;52.510;13.456;2022-09-13T22:03:10;-26621.41;;;16.08;100.00
21664;BME280;10993;52.510;13.456;2022-09-13T22:08:12;-26616.59;;;15.92;100.00
21664;BME280;10993;52.510;13.456;2022-09-13T22:13:12;-26612.41;;;15.78;100.00
21664;BME280;10993;52.510;13.456;2022-09-13T22:18:12;-26607.72;;;15.63;100.00
21664;BME280;10993;52.510;13.456;2022-09-13T22:23:14;-26602.28;;;15.45;100.00
21664;BME280;10993;52.510;13.456;2022-09-13T22:28:14;-26599.94;;;15.37;100.00
21664;BME280;10993;52.510;13.456;2022-09-13T22:33:15;-26598.69;;;15.33;100.00
21664;BME280;10993;52.510;13.456;2022-09-13T22:38:16;-26599.94;;;15.37;100.00
21664;BME280;10993;52.510;13.456;2022-09-13T22:43:17;-26598.84;;;15.33;100.00
21664;BME280;10993;52.510;13.456;2022-09-13T22:48:18;-26594.97;;;15.20;100.00
21664;BME280;10993;52.510;13.456;2022-09-13T22:53:21;-26597.16;;;15.28;100.00
21664;BME280;10993;52.510;13.456;2022-09-13T22:58:22;-26596.22;;;15.25;100.00
21664;BME280;10993;52.510;13.456;2022-09-13T23:03:23;-26595.28;;;15.22;100.00
21664;BME280;10993;52.510;13.456;2022-09-13T23:08:25;-26596.06;;;15.24;100.00
21664;BME280;10993;52.510;13.456;2022-09-13T23:13:25;-26591.84;;;15.10;100.00
21664;BME280;10993;52.510;13.456;2022-09-13T23:18:26;-26589.03;;;15.01;100.00
21664;BME280;10993;52.510;13.456;2022-09-13T23:23:27;-26586.88;;;14.94;100.00
21664;BME280;10993;52.510;13.456;2022-09-13T23:28:28;-26588.25;;;14.98;100.00
21664;BME280;10993;52.510;13.456;2022-09-13T23:33:30;-26586.88;;;14.94;100.00
21664;BME280;10993;52.510;13.456;2022-09-13T23:38:31;-26582.19;;;14.78;100.00
21664;BME280;10993;52.510;13.456;2022-09-13T23:43:32;-26582.97;;;14.81;100.00
21664;BME280;10993;52.510;13.456;2022-09-13T23:48:33;-26585.00;;;14.88;100.00
21664;BME280;10993;52.510;13.456;2022-09-13T23:53:36;-26580.16;;;14.72;100.00
21664;BME280;10993;52.510;13.456;2022-09-13T23:58:37;-26583.59;;;14.83;100.00
